sensor_id;sensor_type;location;lat;lon;timestamp;P1;durP1;ratioP1;P2;durP2;ratioP2
5795;SDS011;2924;51.458;7.046;2023-05-31T00:02:17;19.27;;;14.90;;
5795;SDS011;2924;51.458;7.046;2023-05-31T00:04:42;20.30;;;13.53;;
5795;SDS011;2924;51.458;7.046;2023-05-31T00:07:08;19.10;;;12.47;;
5795;SDS011;2924;51.458;7.046;2023-05-31T00:09:34;16.53;;;12.40;;
5795;SDS011;2924;51.458;7.046;2023-05-31T00:11:59;14.23;;;11.53;;
5795;SDS011;2924;51.458;7.046;2023-05-31T00:14:25;19.10;;;12.80;;
5795;SDS011;2924;51.458;7.046;2023-05-31T00:16:51;18.13;;;13.90;;
5795;SDS011;2924;51.458;7.046;2023-05-31T00:19:17;21.33;;;14.60;;
5795;SDS011;2924;51.458;7.046;2023-05-31T00:21:43;25.77;;;14.10;;
5795;SDS011;2924;51.458;7.046;2023-05-31T00:24:10;18.10;;;13.57;;
5795;SDS011;2924;51.458;7.046;2023-05-31T00:26:36;17.70;;;11.83;;
5795;SDS011;2924;51.458;7.046;2023-05-31T00:29:02;19.07;;;14.60;;
5795;SDS011;2924;51.458;7.046;2023-05-31T00:31:27;17.03;;;12.60;;
5795;SDS011;2924;51.458;7.046;2023-05-31T00:33:53;21.53;;;15.17;;
5795;SDS011;2924;51.458;7.046;2023-05-31T00:36:19;22.43;;;14.60;;
5795;SDS011;2924;51.458;7.046;2023-05-31T00:38:44;19.70;;;13.60;;
5795;SDS011;2924;51.458;7.046;2023-05-31T00:41:10;20.80;;;14.27;;
5795;SDS011;2924;51.458;7.046;2023-05-31T00:43:36;21.47;;;14.73;;
5795;SDS011;2924;51.458;7.046;2023-05-31T00:46:01;21.03;;;15.90;;
5795;SDS011;2924;51.458;7.046;2023-05-31T00:48:28;26.43;;;13.43;;
5795;SDS011;2924;51.458;7.046;2023-05-31T00:50:54;20.97;;;14.33;;
5795;SDS011;2924;51.458;7.046;2023-05-31T00:53:19;18.93;;;13.60;;
5795;SDS011;2924;51.458;7.046;2023-05-31T00:55:46;18.60;;;13.90;;
5795;SDS011;2924;51.458;7.046;2023-05-31T00:58:14;26.10;;;15.10;;
5795;SDS011;2924;51.458;7.046;2023-05-31T01:00:41;19.80;;;14.93;;
5795;SDS011;2924;51.458;7.046;2023-05-31T01:03:07;15.77;;;13.27;;
5795;SDS011;2924;51.458;7.046;2023-05-31T01:05:34;18.33;;;13.80;;
5795;SDS011;2924;51.458;7.046;2023-05-31T01:08:01;20.37;;;14.20;;
5795;SDS011;2924;51.458;7.046;2023-05-31T01:10:27;20.20;;;14.00;;
5795;SDS011;2924;51.458;7.046;2023-05-31T01:13:03;18.37;;;13.87;;
5795;SDS011;2924;51.458;7.046;2023-05-31T01:15:39;18.53;;;13.60;;
5795;SDS011;2924;51.458;7.046;2023-05-31T01:18:17;18.23;;;13.77;;
5795;SDS011;2924;51.458;7.046;2023-05-31T01:20:50;19.73;;;14.70;;
5795;SDS011;2924;51.458;7.046;2023-05-31T01:28:47;26.00;;;14.60;;
5795;SDS011;2924;51.458;7.046;2023-05-31T01:31:16;19.80;;;13.93;;
5795;SDS011;2924;51.458;7.046;2023-05-31T01:33:44;22.93;;;15.43;;
5795;SDS011;2924;51.458;7.046;2023-05-31T01:36:10;22.13;;;15.67;;
5795;SDS011;2924;51.458;7.046;2023-05-31T01:38:36;24.00;;;14.50;;
5795;SDS011;2924;51.458;7.046;2023-05-31T01:41:01;23.73;;;14.00;;
5795;SDS011;2924;51.458;7.046;2023-05-31T01:43:31;19.80;;;14.60;;
5795;SDS011;2924;51.458;7.046;2023-05-31T01:45:58;20.37;;;15.10;;
5795;SDS011;2924;51.458;7.046;2023-05-31T01:48:25;22.07;;;14.40;;
5795;SDS011;2924;51.458;7.046;2023-05-31T01:50:53;24.70;;;15.37;;
5795;SDS011;2924;51.458;7.046;2023-05-31T01:53:20;22.57;;;15.50;;
5795;SDS011;2924;51.458;7.046;2023-05-31T01:55:46;19.70;;;14.53;;
5795;SDS011;2924;51.458;7.046;2023-05-31T01:58:12;23.57;;;13.83;;
5795;SDS011;2924;51.458;7.046;2023-05-31T02:00:40;17.23;;;14.30;;
5795;SDS011;2924;51.458;7.046;2023-05-31T02:03:06;19.27;;;13.90;;
5795;SDS011;2924;51.458;7.046;2023-05-31T02:05:32;18.67;;;14.70;;
5795;SDS011;2924;51.458;7.046;2023-05-31T02:07:57;20.63;;;15.20;;
5795;SDS011;2924;51.458;7.046;2023-05-31T02:10:23;20.07;;;15.53;;
5795;SDS011;2924;51.458;7.046;2023-05-31T02:12:49;19.73;;;14.33;;
5795;SDS011;2924;51.458;7.046;2023-05-31T02:15:15;22.17;;;14.00;;
5795;SDS011;2924;51.458;7.046;2023-05-31T02:17:44;22.10;;;15.67;;
5795;SDS011;2924;51.458;7.046;2023-05-31T02:20:14;18.37;;;15.20;;
5795;SDS011;2924;51.458;7.046;2023-05-31T02:22:43;20.63;;;15.03;;
5795;SDS011;2924;51.458;7.046;2023-05-31T02:25:09;25.57;;;15.93;;
5795;SDS011;2924;51.458;7.046;2023-05-31T02:27:39;23.13;;;15.97;;
5795;SDS011;2924;51.458;7.046;2023-05-31T02:30:06;23.40;;;16.10;;
5795;SDS011;2924;51.458;7.046;2023-05-31T02:32:33;23.03;;;15.40;;
5795;SDS011;2924;51.458;7.046;2023-05-31T02:35:03;23.20;;;15.67;;
5795;SDS011;2924;51.458;7.046;2023-05-31T02:37:30;24.07;;;15.60;;
5795;SDS011;2924;51.458;7.046;2023-05-31T02:39:56;21.47;;;15.60;;
5795;SDS011;2924;51.458;7.046;2023-05-31T02:42:22;23.87;;;15.90;;
5795;SDS011;2924;51.458;7.046;2023-05-31T02:44:47;24.77;;;15.60;;
5795;SDS011;2924;51.458;7.046;2023-05-31T02:47:13;21.07;;;16.20;;
5795;SDS011;2924;51.458;7.046;2023-05-31T02:49:39;25.60;;;17.73;;
5795;SDS011;2924;51.458;7.046;2023-05-31T02:52:05;22.70;;;16.47;;
5795;SDS011;2924;51.458;7.046;2023-05-31T02:54:30;24.63;;;16.33;;
5795;SDS011;2924;51.458;7.046;2023-05-31T02:56:56;23.13;;;16.30;;
5795;SDS011;2924;51.458;7.046;2023-05-31T02:59:22;22.07;;;15.67;;
5795;SDS011;2924;51.458;7.046;2023-05-31T03:01:48;23.67;;;17.07;;
5795;SDS011;2924;51.458;7.046;2023-05-31T03:04:14;24.43;;;16.23;;
5795;SDS011;2924;51.458;7.046;2023-05-31T03:06:40;31.10;;;16.13;;
5795;SDS011;2924;51.458;7.046;2023-05-31T03:09:07;24.80;;;16.97;;
5795;SDS011;2924;51.458;7.046;2023-05-31T03:11:33;25.37;;;16.50;;
5795;SDS011;2924;51.458;7.046;2023-05-31T03:13:59;26.50;;;18.70;;
5795;SDS011;2924;51.458;7.046;2023-05-31T03:16:25;23.13;;;16.60;;
5795;SDS011;2924;51.458;7.046;2023-05-31T03:18:50;26.43;;;17.73;;
5795;SDS011;2924;51.458;7.046;2023-05-31T03:21:16;29.00;;;16.63;;
5795;SDS011;2924;51.458;7.046;2023-05-31T03:23:42;24.90;;;17.43;;
5795;SDS011;2924;51.458;7.046;2023-05-31T03:26:07;22.70;;;17.87;;
5795;SDS011;2924;51.458;7.046;2023-05-31T03:28:33;38.23;;;17.43;;
5795;SDS011;2924;51.458;7.046;2023-05-31T03:30:58;25.63;;;16.60;;
5795;SDS011;2924;51.458;7.046;2023-05-31T03:33:24;24.00;;;17.30;;
5795;SDS011;2924;51.458;7.046;2023-05-31T03:35:50;24.23;;;16.90;;
5795;SDS011;2924;51.458;7.046;2023-05-31T03:38:16;25.50;;;17.23;;
5795;SDS011;2924;51.458;7.046;2023-05-31T03:40:41;32.70;;;17.93;;
5795;SDS011;2924;51.458;7.046;2023-05-31T03:43:07;27.43;;;16.60;;
5795;SDS011;2924;51.458;7.046;2023-05-31T03:45:32;28.27;;;19.33;;
5795;SDS011;2924;51.458;7.046;2023-05-31T03:47:58;32.30;;;19.73;;
5795;SDS011;2924;51.458;7.046;2023-05-31T03:50:23;29.60;;;18.53;;
5795;SDS011;2924;51.458;7.046;2023-05-31T03:52:49;30.40;;;18.70;;
5795;SDS011;2924;51.458;7.046;2023-05-31T03:55:14;30.20;;;18.40;;
5795;SDS011;2924;51.458;7.046;2023-05-31T03:57:40;26.23;;;18.63;;
5795;SDS011;2924;51.458;7.046;2023-05-31T04:00:06;31.77;;;18.70;;
5795;SDS011;2924;51.458;7.046;2023-05-31T04:02:32;25.43;;;16.50;;
5795;SDS011;2924;51.458;7.046;2023-05-31T04:04:57;24.97;;;16.83;;
5795;SDS011;2924;51.458;7.046;2023-05-31T04:07:23;22.63;;;17.00;;
5795;SDS011;2924;51.458;7.046;2023-05-31T04:09:48;23.77;;;16.50;;
5795;SDS011;2924;51.458;7.046;2023-05-31T04:12:14;31.60;;;17.07;;
5795;SDS011;2924;51.458;7.046;2023-05-31T04:14:40;26.73;;;16.53;;
5795;SDS011;2924;51.458;7.046;2023-05-31T04:17:05;25.03;;;15.97;;
5795;SDS011;2924;51.458;7.046;2023-05-31T04:19:31;24.97;;;17.10;;
5795;SDS011;2924;51.458;7.046;2023-05-31T04:21:56;27.13;;;17.23;;
5795;SDS011;2924;51.458;7.046;2023-05-31T04:24:22;24.87;;;15.77;;
5795;SDS011;2924;51.458;7.046;2023-05-31T04:26:48;19.70;;;15.67;;
5795;SDS011;2924;51.458;7.046;2023-05-31T04:29:13;22.80;;;14.70;;
5795;SDS011;2924;51.458;7.046;2023-05-31T04:31:39;18.93;;;12.13;;
5795;SDS011;2924;51.458;7.046;2023-05-31T04:34:05;19.70;;;13.50;;
5795;SDS011;2924;51.458;7.046;2023-05-31T04:36:31;15.40;;;12.10;;
5795;SDS011;2924;51.458;7.046;2023-05-31T04:38:57;14.77;;;12.17;;
5795;SDS011;2924;51.458;7.046;2023-05-31T04:41:24;17.20;;;11.77;;
5795;SDS011;2924;51.458;7.046;2023-05-31T04:43:51;14.20;;;10.77;;
5795;SDS011;2924;51.458;7.046;2023-05-31T04:46:18;16.13;;;11.57;;
5795;SDS011;2924;51.458;7.046;2023-05-31T04:48:44;16.57;;;10.40;;
5795;SDS011;2924;51.458;7.046;2023-05-31T04:51:15;13.47;;;11.77;;
5795;SDS011;2924;51.458;7.046;2023-05-31T04:53:44;13.27;;;10.27;;
5795;SDS011;2924;51.458;7.046;2023-05-31T04:56:13;14.07;;;11.27;;
5795;SDS011;2924;51.458;7.046;2023-05-31T04:58:40;13.80;;;10.77;;
5795;SDS011;2924;51.458;7.046;2023-05-31T05:01:06;17.43;;;10.50;;
5795;SDS011;2924;51.458;7.046;2023-05-31T05:03:32;18.83;;;11.40;;
5795;SDS011;2924;51.458;7.046;2023-05-31T05:06:00;13.47;;;10.00;;
5795;SDS011;2924;51.458;7.046;2023-05-31T05:08:36;11.87;;;10.23;;
5795;SDS011;2924;51.458;7.046;2023-05-31T05:11:01;12.20;;;10.67;;
5795;SDS011;2924;51.458;7.046;2023-05-31T05:13:27;12.63;;;9.83;;
5795;SDS011;2924;51.458;7.046;2023-05-31T05:15:53;12.67;;;10.90;;
5795;SDS011;2924;51.458;7.046;2023-05-31T05:18:18;12.43;;;10.40;;
5795;SDS011;2924;51.458;7.046;2023-05-31T05:20:44;22.10;;;10.97;;
5795;SDS011;2924;51.458;7.046;2023-05-31T05:23:10;13.73;;;9.33;;
5795;SDS011;2924;51.458;7.046;2023-05-31T05:25:35;10.80;;;9.53;;
5795;SDS011;2924;51.458;7.046;2023-05-31T05:28:01;15.17;;;10.00;;
5795;SDS011;2924;51.458;7.046;2023-05-31T05:30:27;25.80;;;10.80;;
5795;SDS011;2924;51.458;7.046;2023-05-31T05:32:53;14.83;;;10.93;;
5795;SDS011;2924;51.458;7.046;2023-05-31T05:35:18;14.43;;;11.37;;
5795;SDS011;2924;51.458;7.046;2023-05-31T05:37:44;20.37;;;12.53;;
5795;SDS011;2924;51.458;7.046;2023-05-31T05:40:09;13.73;;;10.13;;
5795;SDS011;2924;51.458;7.046;2023-05-31T05:42:36;13.50;;;10.30;;
5795;SDS011;2924;51.458;7.046;2023-05-31T05:45:05;20.67;;;12.43;;
5795;SDS011;2924;51.458;7.046;2023-05-31T05:47:32;16.27;;;11.70;;
5795;SDS011;2924;51.458;7.046;2023-05-31T05:49:59;14.50;;;10.43;;
5795;SDS011;2924;51.458;7.046;2023-05-31T05:52:24;16.80;;;10.63;;
5795;SDS011;2924;51.458;7.046;2023-05-31T05:54:50;13.13;;;10.43;;
5795;SDS011;2924;51.458;7.046;2023-05-31T05:57:15;18.03;;;11.23;;
5795;SDS011;2924;51.458;7.046;2023-05-31T05:59:41;19.60;;;10.83;;
5795;SDS011;2924;51.458;7.046;2023-05-31T06:02:07;17.00;;;11.17;;
5795;SDS011;2924;51.458;7.046;2023-05-31T06:04:32;19.17;;;11.33;;
5795;SDS011;2924;51.458;7.046;2023-05-31T06:06:58;17.60;;;11.67;;
5795;SDS011;2924;51.458;7.046;2023-05-31T06:09:23;15.13;;;11.17;;
5795;SDS011;2924;51.458;7.046;2023-05-31T06:11:49;22.00;;;11.10;;
5795;SDS011;2924;51.458;7.046;2023-05-31T06:14:15;12.33;;;10.10;;
5795;SDS011;2924;51.458;7.046;2023-05-31T06:16:40;17.03;;;11.40;;
5795;SDS011;2924;51.458;7.046;2023-05-31T06:19:06;20.67;;;10.60;;
5795;SDS011;2924;51.458;7.046;2023-05-31T06:21:31;18.07;;;10.07;;
5795;SDS011;2924;51.458;7.046;2023-05-31T06:23:57;13.50;;;9.37;;
5795;SDS011;2924;51.458;7.046;2023-05-31T06:26:25;16.00;;;9.20;;
5795;SDS011;2924;51.458;7.046;2023-05-31T06:28:51;15.53;;;9.23;;
5795;SDS011;2924;51.458;7.046;2023-05-31T06:31:16;20.43;;;9.33;;
5795;SDS011;2924;51.458;7.046;2023-05-31T06:33:42;18.60;;;11.20;;
5795;SDS011;2924;51.458;7.046;2023-05-31T06:36:07;17.30;;;8.87;;
5795;SDS011;2924;51.458;7.046;2023-05-31T06:38:33;10.93;;;9.57;;
5795;SDS011;2924;51.458;7.046;2023-05-31T06:40:58;16.90;;;9.03;;
5795;SDS011;2924;51.458;7.046;2023-05-31T06:43:25;23.17;;;10.90;;
5795;SDS011;2924;51.458;7.046;2023-05-31T06:45:51;12.43;;;8.80;;
5795;SDS011;2924;51.458;7.046;2023-05-31T06:48:16;13.83;;;8.77;;
5795;SDS011;2924;51.458;7.046;2023-05-31T06:50:42;16.40;;;8.40;;
5795;SDS011;2924;51.458;7.046;2023-05-31T06:53:08;18.83;;;8.27;;
5795;SDS011;2924;51.458;7.046;2023-05-31T06:55:34;22.93;;;9.70;;
5795;SDS011;2924;51.458;7.046;2023-05-31T06:58:00;13.30;;;8.90;;
5795;SDS011;2924;51.458;7.046;2023-05-31T07:00:26;14.40;;;8.80;;
5795;SDS011;2924;51.458;7.046;2023-05-31T07:02:52;12.50;;;8.53;;
5795;SDS011;2924;51.458;7.046;2023-05-31T07:05:17;10.20;;;7.77;;
5795;SDS011;2924;51.458;7.046;2023-05-31T07:07:43;12.17;;;8.70;;
5795;SDS011;2924;51.458;7.046;2023-05-31T07:10:09;15.07;;;9.47;;
5795;SDS011;2924;51.458;7.046;2023-05-31T07:12:35;13.80;;;9.17;;
5795;SDS011;2924;51.458;7.046;2023-05-31T07:15:00;14.20;;;8.37;;
5795;SDS011;2924;51.458;7.046;2023-05-31T07:17:26;17.90;;;7.90;;
5795;SDS011;2924;51.458;7.046;2023-05-31T07:19:51;8.90;;;7.67;;
5795;SDS011;2924;51.458;7.046;2023-05-31T07:22:17;11.70;;;6.77;;
5795;SDS011;2924;51.458;7.046;2023-05-31T07:24:43;9.90;;;8.00;;
5795;SDS011;2924;51.458;7.046;2023-05-31T07:27:09;13.90;;;8.17;;
5795;SDS011;2924;51.458;7.046;2023-05-31T07:29:35;7.53;;;6.53;;
5795;SDS011;2924;51.458;7.046;2023-05-31T07:32:01;14.77;;;7.40;;
5795;SDS011;2924;51.458;7.046;2023-05-31T07:34:27;13.70;;;7.60;;
5795;SDS011;2924;51.458;7.046;2023-05-31T07:36:52;17.60;;;9.03;;
5795;SDS011;2924;51.458;7.046;2023-05-31T07:39:19;13.90;;;8.07;;
5795;SDS011;2924;51.458;7.046;2023-05-31T07:41:46;9.50;;;5.70;;
5795;SDS011;2924;51.458;7.046;2023-05-31T07:44:11;10.20;;;7.20;;
5795;SDS011;2924;51.458;7.046;2023-05-31T07:46:37;15.87;;;7.23;;
5795;SDS011;2924;51.458;7.046;2023-05-31T07:49:02;19.60;;;7.43;;
5795;SDS011;2924;51.458;7.046;2023-05-31T07:51:28;13.43;;;7.40;;
5795;SDS011;2924;51.458;7.046;2023-05-31T07:53:55;9.33;;;6.50;;
5795;SDS011;2924;51.458;7.046;2023-05-31T07:56:20;13.83;;;8.30;;
5795;SDS011;2924;51.458;7.046;2023-05-31T07:58:47;11.93;;;7.73;;
5795;SDS011;2924;51.458;7.046;2023-05-31T08:01:12;14.83;;;7.90;;
5795;SDS011;2924;51.458;7.046;2023-05-31T08:03:38;11.97;;;7.10;;
5795;SDS011;2924;51.458;7.046;2023-05-31T08:06:05;12.00;;;7.50;;
5795;SDS011;2924;51.458;7.046;2023-05-31T08:08:31;11.00;;;6.70;;
5795;SDS011;2924;51.458;7.046;2023-05-31T08:10:57;15.57;;;7.70;;
5795;SDS011;2924;51.458;7.046;2023-05-31T08:13:24;15.70;;;7.93;;
5795;SDS011;2924;51.458;7.046;2023-05-31T08:15:50;7.80;;;6.57;;
5795;SDS011;2924;51.458;7.046;2023-05-31T08:18:17;16.35;;;8.15;;
5795;SDS011;2924;51.458;7.046;2023-05-31T08:20:42;13.33;;;6.80;;
5795;SDS011;2924;51.458;7.046;2023-05-31T08:23:08;11.93;;;7.10;;
5795;SDS011;2924;51.458;7.046;2023-05-31T08:25:33;11.30;;;6.63;;
5795;SDS011;2924;51.458;7.046;2023-05-31T08:27:59;9.80;;;5.93;;
5795;SDS011;2924;51.458;7.046;2023-05-31T08:30:25;12.87;;;6.07;;
5795;SDS011;2924;51.458;7.046;2023-05-31T08:32:50;15.98;;;6.53;;
5795;SDS011;2924;51.458;7.046;2023-05-31T08:35:17;13.10;;;6.45;;
5795;SDS011;2924;51.458;7.046;2023-05-31T08:37:42;13.20;;;4.72;;
5795;SDS011;2924;51.458;7.046;2023-05-31T08:40:09;15.10;;;6.57;;
5795;SDS011;2924;51.458;7.046;2023-05-31T08:43:09;9.48;;;5.53;;
5795;SDS011;2924;51.458;7.046;2023-05-31T08:45:40;11.95;;;4.63;;
5795;SDS011;2924;51.458;7.046;2023-05-31T08:51:07;9.30;;;5.20;;
5795;SDS011;2924;51.458;7.046;2023-05-31T08:53:34;15.55;;;5.97;;
5795;SDS011;2924;51.458;7.046;2023-05-31T08:56:00;9.40;;;5.30;;
5795;SDS011;2924;51.458;7.046;2023-05-31T08:58:28;11.10;;;5.80;;
5795;SDS011;2924;51.458;7.046;2023-05-31T09:00:54;7.90;;;4.45;;
5795;SDS011;2924;51.458;7.046;2023-05-31T09:03:19;8.30;;;5.40;;
5795;SDS011;2924;51.458;7.046;2023-05-31T09:05:47;5.60;;;4.75;;
5795;SDS011;2924;51.458;7.046;2023-05-31T09:08:13;6.40;;;4.68;;
5795;SDS011;2924;51.458;7.046;2023-05-31T09:10:39;12.00;;;5.57;;
5795;SDS011;2924;51.458;7.046;2023-05-31T09:13:05;7.28;;;4.32;;
5795;SDS011;2924;51.458;7.046;2023-05-31T09:15:31;10.82;;;5.18;;
5795;SDS011;2924;51.458;7.046;2023-05-31T09:18:11;8.77;;;4.60;;
5795;SDS011;2924;51.458;7.046;2023-05-31T09:20:41;10.70;;;5.22;;
5795;SDS011;2924;51.458;7.046;2023-05-31T09:23:08;8.80;;;4.10;;
5795;SDS011;2924;51.458;7.046;2023-05-31T09:25:47;8.95;;;3.97;;
5795;SDS011;2924;51.458;7.046;2023-05-31T09:28:18;8.75;;;4.13;;
5795;SDS011;2924;51.458;7.046;2023-05-31T09:30:45;8.05;;;4.15;;
5795;SDS011;2924;51.458;7.046;2023-05-31T09:33:25;6.97;;;3.83;;
5795;SDS011;2924;51.458;7.046;2023-05-31T09:36:08;7.50;;;4.20;;
5795;SDS011;2924;51.458;7.046;2023-05-31T09:38:36;6.55;;;3.70;;
5795;SDS011;2924;51.458;7.046;2023-05-31T09:41:12;11.18;;;3.55;;
5795;SDS011;2924;51.458;7.046;2023-05-31T09:43:46;3.45;;;3.15;;
5795;SDS011;2924;51.458;7.046;2023-05-31T09:46:16;10.45;;;3.85;;
5795;SDS011;2924;51.458;7.046;2023-05-31T09:48:46;11.45;;;4.10;;
5795;SDS011;2924;51.458;7.046;2023-05-31T09:51:25;8.88;;;3.85;;
5795;SDS011;2924;51.458;7.046;2023-05-31T09:53:52;4.38;;;3.20;;
5795;SDS011;2924;51.458;7.046;2023-05-31T09:56:20;5.90;;;3.03;;
5795;SDS011;2924;51.458;7.046;2023-05-31T09:58:47;9.80;;;3.53;;
5795;SDS011;2924;51.458;7.046;2023-05-31T10:01:17;6.78;;;2.92;;
5795;SDS011;2924;51.458;7.046;2023-05-31T10:03:43;7.80;;;3.25;;
5795;SDS011;2924;51.458;7.046;2023-05-31T10:06:09;8.32;;;3.58;;
5795;SDS011;2924;51.458;7.046;2023-05-31T10:08:36;6.10;;;2.80;;
5795;SDS011;2924;51.458;7.046;2023-05-31T10:11:02;7.55;;;3.00;;
5795;SDS011;2924;51.458;7.046;2023-05-31T10:13:29;4.60;;;2.72;;
5795;SDS011;2924;51.458;7.046;2023-05-31T10:15:59;5.15;;;2.63;;
5795;SDS011;2924;51.458;7.046;2023-05-31T10:18:31;4.78;;;2.42;;
5795;SDS011;2924;51.458;7.046;2023-05-31T10:20:59;4.57;;;3.10;;
5795;SDS011;2924;51.458;7.046;2023-05-31T10:23:28;4.38;;;2.60;;
5795;SDS011;2924;51.458;7.046;2023-05-31T10:26:05;3.38;;;1.80;;
5795;SDS011;2924;51.458;7.046;2023-05-31T10:28:36;9.85;;;2.83;;
5795;SDS011;2924;51.458;7.046;2023-05-31T10:31:03;6.35;;;2.50;;
5795;SDS011;2924;51.458;7.046;2023-05-31T10:33:30;2.30;;;2.10;;
5795;SDS011;2924;51.458;7.046;2023-05-31T10:35:59;2.78;;;2.53;;
5795;SDS011;2924;51.458;7.046;2023-05-31T10:38:27;3.00;;;2.30;;
5795;SDS011;2924;51.458;7.046;2023-05-31T10:41:01;12.82;;;2.88;;
5795;SDS011;2924;51.458;7.046;2023-05-31T10:43:36;6.03;;;2.38;;
5795;SDS011;2924;51.458;7.046;2023-05-31T10:46:10;7.00;;;3.33;;
5795;SDS011;2924;51.458;7.046;2023-05-31T10:48:56;2.90;;;2.30;;
5795;SDS011;2924;51.458;7.046;2023-05-31T10:51:42;4.83;;;2.57;;
5795;SDS011;2924;51.458;7.046;2023-05-31T10:54:18;12.50;;;3.40;;
5795;SDS011;2924;51.458;7.046;2023-05-31T10:56:51;8.50;;;2.60;;
5795;SDS011;2924;51.458;7.046;2023-05-31T10:59:22;4.75;;;2.25;;
5795;SDS011;2924;51.458;7.046;2023-05-31T11:01:48;5.45;;;2.58;;
5795;SDS011;2924;51.458;7.046;2023-05-31T11:04:20;5.13;;;2.72;;
5795;SDS011;2924;51.458;7.046;2023-05-31T11:06:53;5.78;;;2.88;;
5795;SDS011;2924;51.458;7.046;2023-05-31T11:09:20;3.63;;;2.35;;
5795;SDS011;2924;51.458;7.046;2023-05-31T11:11:47;5.93;;;2.35;;
5795;SDS011;2924;51.458;7.046;2023-05-31T11:19:19;5.30;;;3.20;;
5795;SDS011;2924;51.458;7.046;2023-05-31T11:21:46;9.27;;;3.10;;
5795;SDS011;2924;51.458;7.046;2023-05-31T11:24:28;9.65;;;3.10;;
5795;SDS011;2924;51.458;7.046;2023-05-31T11:26:59;16.55;;;3.55;;
5795;SDS011;2924;51.458;7.046;2023-05-31T11:32:10;11.85;;;3.58;;
5795;SDS011;2924;51.458;7.046;2023-05-31T11:34:47;11.75;;;3.33;;
5795;SDS011;2924;51.458;7.046;2023-05-31T11:37:13;12.55;;;3.17;;
5795;SDS011;2924;51.458;7.046;2023-05-31T11:39:42;10.68;;;3.25;;
5795;SDS011;2924;51.458;7.046;2023-05-31T11:42:09;6.78;;;2.78;;
5795;SDS011;2924;51.458;7.046;2023-05-31T11:44:35;6.53;;;2.95;;
5795;SDS011;2924;51.458;7.046;2023-05-31T11:47:08;8.82;;;3.13;;
5795;SDS011;2924;51.458;7.046;2023-05-31T11:49:35;5.40;;;2.53;;
5795;SDS011;2924;51.458;7.046;2023-05-31T11:52:02;7.88;;;2.40;;
5795;SDS011;2924;51.458;7.046;2023-05-31T11:54:30;10.57;;;3.30;;
5795;SDS011;2924;51.458;7.046;2023-05-31T11:57:04;14.15;;;3.17;;
5795;SDS011;2924;51.458;7.046;2023-05-31T11:59:33;17.67;;;3.60;;
5795;SDS011;2924;51.458;7.046;2023-05-31T12:02:01;7.18;;;3.05;;
5795;SDS011;2924;51.458;7.046;2023-05-31T12:04:28;7.13;;;2.70;;
5795;SDS011;2924;51.458;7.046;2023-05-31T12:06:58;12.40;;;2.97;;
5795;SDS011;2924;51.458;7.046;2023-05-31T12:09:25;6.95;;;2.50;;
5795;SDS011;2924;51.458;7.046;2023-05-31T12:11:51;7.07;;;2.40;;
5795;SDS011;2924;51.458;7.046;2023-05-31T12:14:17;10.93;;;2.10;;
5795;SDS011;2924;51.458;7.046;2023-05-31T12:16:43;11.63;;;3.10;;
5795;SDS011;2924;51.458;7.046;2023-05-31T12:19:13;7.53;;;3.03;;
5795;SDS011;2924;51.458;7.046;2023-05-31T12:21:39;6.10;;;2.83;;
5795;SDS011;2924;51.458;7.046;2023-05-31T12:24:14;7.07;;;2.67;;
5795;SDS011;2924;51.458;7.046;2023-05-31T12:26:44;2.22;;;1.80;;
5795;SDS011;2924;51.458;7.046;2023-05-31T12:29:11;5.22;;;2.78;;
5795;SDS011;2924;51.458;7.046;2023-05-31T12:31:37;9.50;;;2.72;;
5795;SDS011;2924;51.458;7.046;2023-05-31T12:34:10;4.05;;;2.70;;
5795;SDS011;2924;51.458;7.046;2023-05-31T12:36:43;9.38;;;2.67;;
5795;SDS011;2924;51.458;7.046;2023-05-31T12:39:11;4.13;;;2.20;;
5795;SDS011;2924;51.458;7.046;2023-05-31T12:41:44;5.05;;;2.63;;
5795;SDS011;2924;51.458;7.046;2023-05-31T12:44:17;9.20;;;2.53;;
5795;SDS011;2924;51.458;7.046;2023-05-31T12:46:50;7.78;;;2.42;;
5795;SDS011;2924;51.458;7.046;2023-05-31T12:49:23;5.47;;;2.38;;
5795;SDS011;2924;51.458;7.046;2023-05-31T12:52:02;9.23;;;2.60;;
5795;SDS011;2924;51.458;7.046;2023-05-31T12:54:29;4.20;;;2.20;;
5795;SDS011;2924;51.458;7.046;2023-05-31T12:56:57;11.05;;;3.25;;
5795;SDS011;2924;51.458;7.046;2023-05-31T12:59:23;8.10;;;2.22;;
5795;SDS011;2924;51.458;7.046;2023-05-31T13:01:53;11.50;;;2.80;;
5795;SDS011;2924;51.458;7.046;2023-05-31T13:04:20;3.95;;;2.40;;
5795;SDS011;2924;51.458;7.046;2023-05-31T13:06:46;7.82;;;3.05;;
5795;SDS011;2924;51.458;7.046;2023-05-31T13:09:12;7.43;;;2.83;;
5795;SDS011;2924;51.458;7.046;2023-05-31T13:11:37;3.42;;;1.88;;
5795;SDS011;2924;51.458;7.046;2023-05-31T13:14:04;2.97;;;2.00;;
5795;SDS011;2924;51.458;7.046;2023-05-31T13:16:32;2.30;;;2.13;;
5795;SDS011;2924;51.458;7.046;2023-05-31T13:18:59;4.10;;;2.47;;
5795;SDS011;2924;51.458;7.046;2023-05-31T13:21:25;7.75;;;2.97;;
5795;SDS011;2924;51.458;7.046;2023-05-31T13:23:52;3.85;;;2.10;;
5795;SDS011;2924;51.458;7.046;2023-05-31T13:26:18;6.63;;;2.55;;
5795;SDS011;2924;51.458;7.046;2023-05-31T13:28:45;2.28;;;1.95;;
5795;SDS011;2924;51.458;7.046;2023-05-31T13:31:10;4.43;;;2.13;;
5795;SDS011;2924;51.458;7.046;2023-05-31T13:33:36;5.88;;;2.42;;
5795;SDS011;2924;51.458;7.046;2023-05-31T13:36:02;6.25;;;2.88;;
5795;SDS011;2924;51.458;7.046;2023-05-31T13:38:28;10.75;;;2.00;;
5795;SDS011;2924;51.458;7.046;2023-05-31T13:40:54;5.88;;;2.65;;
5795;SDS011;2924;51.458;7.046;2023-05-31T13:43:20;7.85;;;2.50;;
5795;SDS011;2924;51.458;7.046;2023-05-31T13:45:47;5.45;;;2.03;;
5795;SDS011;2924;51.458;7.046;2023-05-31T13:48:13;5.15;;;2.25;;
5795;SDS011;2924;51.458;7.046;2023-05-31T13:50:40;6.15;;;2.13;;
5795;SDS011;2924;51.458;7.046;2023-05-31T13:53:06;4.38;;;2.30;;
5795;SDS011;2924;51.458;7.046;2023-05-31T13:55:32;2.60;;;2.10;;
5795;SDS011;2924;51.458;7.046;2023-05-31T13:57:58;4.50;;;1.90;;
5795;SDS011;2924;51.458;7.046;2023-05-31T14:00:24;7.50;;;2.25;;
5795;SDS011;2924;51.458;7.046;2023-05-31T14:02:51;2.85;;;1.92;;
5795;SDS011;2924;51.458;7.046;2023-05-31T14:05:17;10.90;;;2.70;;
5795;SDS011;2924;51.458;7.046;2023-05-31T14:07:43;3.55;;;2.45;;
5795;SDS011;2924;51.458;7.046;2023-05-31T14:10:08;8.05;;;2.55;;
5795;SDS011;2924;51.458;7.046;2023-05-31T14:12:34;5.80;;;2.25;;
5795;SDS011;2924;51.458;7.046;2023-05-31T14:15:00;7.78;;;2.55;;
5795;SDS011;2924;51.458;7.046;2023-05-31T14:17:26;7.75;;;2.72;;
5795;SDS011;2924;51.458;7.046;2023-05-31T14:19:52;3.85;;;2.05;;
5795;SDS011;2924;51.458;7.046;2023-05-31T14:22:17;4.15;;;2.67;;
5795;SDS011;2924;51.458;7.046;2023-05-31T14:24:43;5.85;;;2.42;;
5795;SDS011;2924;51.458;7.046;2023-05-31T14:27:08;10.82;;;2.22;;
5795;SDS011;2924;51.458;7.046;2023-05-31T14:29:34;3.33;;;2.45;;
5795;SDS011;2924;51.458;7.046;2023-05-31T14:32:00;4.90;;;2.40;;
5795;SDS011;2924;51.458;7.046;2023-05-31T14:34:25;4.20;;;2.22;;
5795;SDS011;2924;51.458;7.046;2023-05-31T14:36:51;6.07;;;2.15;;
5795;SDS011;2924;51.458;7.046;2023-05-31T14:39:17;6.18;;;2.40;;
5795;SDS011;2924;51.458;7.046;2023-05-31T14:41:43;7.15;;;2.70;;
5795;SDS011;2924;51.458;7.046;2023-05-31T14:44:08;4.68;;;2.70;;
5795;SDS011;2924;51.458;7.046;2023-05-31T14:46:34;7.80;;;2.97;;
5795;SDS011;2924;51.458;7.046;2023-05-31T14:48:59;9.25;;;2.13;;
5795;SDS011;2924;51.458;7.046;2023-05-31T14:51:25;5.10;;;2.22;;
5795;SDS011;2924;51.458;7.046;2023-05-31T14:53:53;6.60;;;2.50;;
5795;SDS011;2924;51.458;7.046;2023-05-31T14:56:20;3.97;;;1.90;;
5795;SDS011;2924;51.458;7.046;2023-05-31T14:58:45;6.28;;;2.30;;
5795;SDS011;2924;51.458;7.046;2023-05-31T15:01:11;4.72;;;2.25;;
5795;SDS011;2924;51.458;7.046;2023-05-31T15:03:37;4.95;;;2.28;;
5795;SDS011;2924;51.458;7.046;2023-05-31T15:06:03;9.75;;;2.33;;
5795;SDS011;2924;51.458;7.046;2023-05-31T15:08:28;5.80;;;2.22;;
5795;SDS011;2924;51.458;7.046;2023-05-31T15:10:54;4.18;;;2.05;;
5795;SDS011;2924;51.458;7.046;2023-05-31T15:13:20;3.45;;;1.58;;
5795;SDS011;2924;51.458;7.046;2023-05-31T15:15:46;4.00;;;1.88;;
5795;SDS011;2924;51.458;7.046;2023-05-31T15:18:11;4.55;;;2.10;;